createdAt,value
2023-01-26T00:01:22.907Z,42.77
2023-01-26T00:03:50.563Z,43.57
2023-01-26T00:06:19.134Z,42.63
2023-01-26T00:08:48.063Z,42.03
2023-01-26T00:11:19.256Z,40.43
2023-01-26T00:13:46.099Z,39.10
2023-01-26T00:16:15.136Z,40.50
2023-01-26T00:18:42.447Z,37.87
2023-01-26T00:21:13.111Z,36.87
2023-01-26T00:23:39.732Z,38.40
2023-01-26T00:26:10.058Z,37.63
2023-01-26T00:28:36.620Z,35.77
2023-01-26T00:31:08.525Z,35.10
2023-01-26T00:33:35.520Z,36.73
2023-01-26T00:36:02.033Z,36.13
2023-01-26T00:38:28.819Z,35.93
2023-01-26T00:40:55.780Z,36.40
2023-01-26T00:43:22.447Z,36.20
2023-01-26T00:45:49.290Z,35.80
2023-01-26T00:48:17.870Z,36.30
2023-01-26T00:50:44.423Z,36.73
2023-01-26T00:53:11.134Z,36.97
2023-01-26T00:55:37.970Z,35.93
2023-01-26T00:58:06.218Z,37.43
2023-01-26T01:00:34.145Z,38.33
2023-01-26T01:03:01.320Z,37.27
2023-01-26T01:05:29.849Z,35.17
2023-01-26T01:07:56.886Z,37.67
2023-01-26T01:10:24.185Z,37.67
2023-01-26T01:12:50.969Z,37.97
2023-01-26T01:15:17.797Z,38.57
2023-01-26T01:17:44.493Z,38.33
2023-01-26T01:20:12.178Z,39.70
2023-01-26T01:22:39.126Z,38.47
2023-01-26T01:25:06.282Z,38.13
2023-01-26T01:27:32.924Z,39.10
2023-01-26T01:29:59.438Z,40.37
2023-01-26T01:32:26.090Z,40.40
2023-01-26T01:34:52.773Z,38.60
2023-01-26T01:37:19.387Z,40.30
2023-01-26T01:39:45.902Z,40.50
2023-01-26T01:42:12.641Z,39.40
2023-01-26T01:44:39.481Z,38.47
2023-01-26T01:47:21.703Z,39.10
2023-01-26T01:49:50.994Z,38.03
2023-01-26T01:52:26.322Z,38.90
2023-01-26T01:54:55.982Z,38.03
2023-01-26T01:57:28.875Z,36.13
2023-01-26T02:00:04.961Z,37.30
2023-01-26T02:02:32.036Z,36.27
2023-01-26T02:05:04.423Z,36.00
2023-01-26T02:07:32.870Z,35.90
2023-01-26T02:10:18.134Z,37.23
2023-01-26T02:12:45.752Z,34.73
2023-01-26T02:15:12.456Z,35.70
2023-01-26T02:17:40.447Z,35.33
2023-01-26T02:20:10.476Z,34.50
2023-01-26T02:23:02.168Z,34.83
2023-01-26T02:26:00.768Z,37.10
2023-01-26T02:28:30.825Z,36.40
2023-01-26T02:30:57.728Z,36.07
2023-01-26T02:33:29.449Z,37.13
2023-01-26T02:35:56.215Z,37.57
2023-01-26T02:38:23.939Z,35.67
2023-01-26T02:40:58.425Z,37.33
2023-01-26T02:43:26.891Z,37.27
2023-01-26T02:45:54.011Z,35.23
2023-01-26T02:48:39.762Z,38.67
2023-01-26T02:51:06.694Z,37.27
2023-01-26T02:53:33.366Z,36.97
2023-01-26T02:56:00.030Z,37.20
2023-01-26T02:58:27.949Z,37.17
2023-01-26T03:00:54.718Z,36.93
2023-01-26T03:03:41.519Z,37.70
2023-01-26T03:06:10.350Z,37.20
2023-01-26T03:08:40.359Z,35.23
2023-01-26T03:11:08.731Z,36.03
2023-01-26T03:13:35.932Z,36.53
2023-01-26T03:16:07.153Z,35.00
2023-01-26T03:18:54.015Z,35.00
2023-01-26T03:21:39.944Z,35.20
2023-01-26T03:24:30.005Z,34.27
2023-01-26T03:27:15.379Z,35.70
2023-01-26T03:29:41.998Z,33.57
2023-01-26T03:32:08.835Z,33.93
2023-01-26T03:34:35.595Z,34.97
2023-01-26T03:37:02.395Z,36.53
2023-01-26T03:39:47.312Z,34.73
2023-01-26T03:42:32.125Z,35.43
2023-01-26T03:45:17.585Z,34.20
2023-01-26T03:48:02.780Z,35.17
2023-01-26T03:50:47.785Z,34.53
2023-01-26T03:53:38.413Z,36.80
2023-01-26T03:56:18.390Z,35.83
2023-01-26T03:58:46.121Z,37.87
2023-01-26T04:01:20.048Z,36.10
2023-01-26T04:04:09.343Z,36.63
2023-01-26T04:06:56.308Z,35.90
2023-01-26T04:09:23.194Z,36.30
2023-01-26T04:11:49.963Z,34.63
2023-01-26T04:14:42.369Z,35.47
2023-01-26T04:17:36.852Z,35.30
2023-01-26T04:20:25.087Z,38.17
2023-01-26T04:22:52.101Z,35.47
2023-01-26T04:25:20.113Z,37.60
2023-01-26T04:27:46.851Z,37.77
2023-01-26T04:30:15.227Z,37.03
2023-01-26T04:32:41.968Z,36.60
2023-01-26T04:35:09.789Z,36.60
2023-01-26T04:37:36.679Z,38.23
2023-01-26T04:40:04.418Z,37.07
2023-01-26T04:42:31.009Z,37.60
2023-01-26T04:44:57.899Z,38.73
2023-01-26T04:47:24.519Z,37.43
2023-01-26T04:49:51.188Z,40.27
2023-01-26T04:52:17.727Z,39.70
2023-01-26T04:54:44.346Z,41.00
2023-01-26T04:57:11.511Z,41.37
2023-01-26T04:59:38.255Z,39.10
2023-01-26T05:02:05.044Z,41.40
2023-01-26T05:04:32.021Z,40.23
2023-01-26T05:06:58.654Z,42.93
2023-01-26T05:09:25.243Z,41.87
2023-01-26T05:11:52.012Z,40.97
2023-01-26T05:14:18.584Z,41.73
2023-01-26T05:16:45.361Z,44.70
2023-01-26T05:19:11.960Z,45.53
2023-01-26T05:21:38.577Z,45.87
2023-01-26T05:24:05.540Z,44.10
2023-01-26T05:26:32.182Z,44.60
2023-01-26T05:28:58.673Z,46.23
2023-01-26T05:31:25.389Z,46.07
2023-01-26T05:33:52.000Z,47.23
2023-01-26T05:36:18.619Z,47.97
2023-01-26T05:38:45.200Z,46.70
2023-01-26T05:41:11.864Z,47.03
2023-01-26T05:43:38.451Z,48.40
2023-01-26T05:46:05.597Z,46.10
2023-01-26T05:48:32.226Z,44.17
2023-01-26T05:50:58.957Z,42.30
2023-01-26T05:53:25.969Z,40.87
2023-01-26T05:55:52.673Z,37.87
2023-01-26T05:58:19.585Z,41.23
2023-01-26T06:00:46.362Z,39.80
2023-01-26T06:03:12.989Z,38.60
2023-01-26T06:05:39.743Z,40.57
2023-01-26T06:08:06.299Z,40.97
2023-01-26T06:10:32.877Z,41.67
2023-01-26T06:13:03.239Z,38.07
2023-01-26T06:15:30.064Z,37.93
2023-01-26T06:17:56.637Z,39.70
2023-01-26T06:20:23.232Z,36.00
2023-01-26T06:22:49.980Z,36.67
2023-01-26T06:25:16.681Z,36.47
2023-01-26T06:27:45.963Z,37.40
2023-01-26T06:30:13.485Z,35.03
2023-01-26T06:32:40.221Z,33.27
2023-01-26T06:35:08.408Z,32.93
2023-01-26T06:37:35.347Z,34.00
2023-01-26T06:40:02.027Z,34.30
2023-01-26T06:42:28.626Z,36.10
2023-01-26T06:44:57.431Z,32.27
2023-01-26T06:47:24.085Z,31.13
2023-01-26T06:49:50.755Z,30.67
2023-01-26T06:52:34.894Z,29.67
2023-01-26T06:55:02.072Z,29.70
2023-01-26T06:57:28.738Z,30.00
2023-01-26T06:59:57.313Z,32.73
2023-01-26T07:02:23.889Z,34.53
2023-01-26T07:04:51.163Z,33.80
2023-01-26T07:07:17.845Z,33.27
2023-01-26T07:09:44.509Z,30.77
2023-01-26T07:12:11.104Z,37.20
2023-01-26T07:14:37.775Z,32.33
2023-01-26T07:17:04.408Z,32.93
2023-01-26T07:19:33.294Z,29.77
2023-01-26T07:22:00.548Z,30.07
2023-01-26T07:24:27.422Z,29.03
2023-01-26T07:26:54.478Z,28.53
2023-01-26T07:29:21.311Z,29.73
2023-01-26T07:31:48.100Z,29.43
2023-01-26T07:34:14.781Z,30.23
2023-01-26T07:36:41.361Z,30.63
2023-01-26T07:39:08.771Z,28.97
2023-01-26T07:41:35.760Z,27.43
2023-01-26T07:44:02.525Z,28.70
2023-01-26T07:46:29.326Z,27.03
2023-01-26T07:48:56.283Z,27.27
2023-01-26T07:51:23.600Z,30.20
2023-01-26T07:53:50.368Z,27.40
2023-01-26T07:56:20.605Z,29.27
2023-01-26T07:58:51.759Z,28.77
2023-01-26T08:01:18.800Z,28.47
2023-01-26T08:03:46.006Z,27.90
2023-01-26T08:06:14.485Z,28.03
2023-01-26T08:08:42.260Z,28.77
2023-01-26T08:11:09.490Z,26.97
2023-01-26T08:13:36.409Z,28.97
2023-01-26T08:16:13.553Z,27.30
2023-01-26T08:18:45.682Z,28.57
2023-01-26T08:21:14.057Z,28.60
2023-01-26T08:23:40.611Z,29.63
2023-01-26T08:26:11.069Z,29.07
2023-01-26T08:28:38.102Z,28.97
2023-01-26T08:31:11.748Z,28.37
2023-01-26T08:33:39.854Z,27.20
2023-01-26T08:36:08.879Z,26.87
2023-01-26T08:38:35.627Z,27.40
2023-01-26T08:41:03.293Z,28.93
2023-01-26T08:43:30.552Z,27.80
2023-01-26T08:45:57.600Z,27.43
2023-01-26T08:48:24.279Z,28.67
2023-01-26T08:50:54.602Z,30.23
2023-01-26T08:53:21.618Z,29.90
2023-01-26T08:55:48.213Z,28.57
2023-01-26T08:58:14.845Z,43.73
2023-01-26T09:00:41.387Z,32.37
2023-01-26T09:03:08.429Z,29.67
2023-01-26T09:05:37.446Z,30.67
2023-01-26T09:08:05.250Z,30.97
2023-01-26T09:10:32.232Z,31.83
2023-01-26T09:13:00.865Z,31.30
2023-01-26T09:15:28.141Z,31.23
2023-01-26T09:17:54.800Z,31.10
2023-01-26T09:20:21.715Z,31.63
2023-01-26T09:22:48.546Z,29.83
2023-01-26T09:25:15.816Z,32.33
2023-01-26T09:27:42.518Z,30.13
2023-01-26T09:30:09.890Z,30.90
2023-01-26T09:32:36.533Z,32.13
2023-01-26T09:35:03.264Z,32.30
2023-01-26T09:37:29.896Z,31.70
2023-01-26T09:39:56.553Z,31.47
2023-01-26T09:42:40.401Z,29.13
2023-01-26T09:45:13.646Z,28.50
2023-01-26T09:47:55.757Z,27.70
2023-01-26T09:50:27.789Z,28.50
2023-01-26T09:52:57.702Z,30.27
2023-01-26T09:55:25.985Z,28.93
2023-01-26T09:57:55.504Z,29.20
2023-01-26T10:00:26.730Z,27.57
2023-01-26T10:03:05.268Z,27.70
2023-01-26T10:06:09.394Z,26.47
2023-01-26T10:08:36.103Z,25.77
2023-01-26T10:11:07.936Z,26.60
2023-01-26T10:13:34.584Z,24.53
2023-01-26T10:16:04.900Z,26.10
2023-01-26T10:18:40.289Z,22.83
2023-01-26T10:21:07.752Z,24.23
2023-01-26T10:23:35.447Z,23.50
2023-01-26T10:26:13.467Z,24.50
2023-01-26T10:28:41.925Z,21.23
2023-01-26T10:31:35.160Z,21.37
2023-01-26T10:34:15.214Z,21.33
2023-01-26T10:36:43.647Z,20.00
2023-01-26T10:39:15.413Z,31.40
2023-01-26T10:42:02.140Z,19.30
2023-01-26T10:44:36.457Z,19.53
2023-01-26T10:47:13.844Z,21.27
2023-01-26T10:49:40.503Z,19.93
2023-01-26T10:52:25.571Z,19.77
2023-01-26T10:55:13.457Z,21.37
2023-01-26T10:57:41.522Z,20.07
2023-01-26T11:00:29.107Z,20.83
2023-01-26T11:03:04.784Z,18.87
2023-01-26T11:05:31.596Z,19.77
2023-01-26T11:08:03.179Z,20.17
2023-01-26T11:10:31.764Z,20.33
2023-01-26T11:13:07.826Z,19.53
2023-01-26T11:15:39.867Z,19.27
2023-01-26T11:18:44.550Z,18.40
2023-01-26T11:21:17.340Z,21.33
2023-01-26T11:23:58.903Z,18.67
2023-01-26T11:26:37.257Z,17.83
2023-01-26T11:29:09.907Z,18.37
2023-01-26T11:31:39.127Z,18.97
2023-01-26T11:34:13.817Z,18.00
2023-01-26T11:36:49.390Z,17.90
2023-01-26T11:39:40.112Z,17.03
2023-01-26T11:42:23.255Z,15.63
2023-01-26T11:45:08.128Z,14.37
2023-01-26T11:47:53.844Z,14.77
2023-01-26T11:50:23.318Z,14.27
2023-01-26T11:53:27.791Z,13.77
2023-01-26T11:56:03.408Z,13.17
2023-01-26T11:58:50.404Z,12.40
2023-01-26T12:01:25.881Z,13.30
2023-01-26T12:03:52.686Z,13.93
2023-01-26T12:06:31.553Z,15.07
2023-01-26T12:09:11.834Z,15.07
2023-01-26T12:11:49.104Z,14.30
2023-01-26T12:14:24.561Z,12.90
2023-01-26T12:17:18.699Z,11.87
2023-01-26T12:20:04.654Z,12.43
2023-01-26T12:22:40.875Z,13.00
2023-01-26T12:25:29.249Z,11.43
2023-01-26T12:28:07.378Z,10.93
2023-01-26T12:30:55.479Z,12.80
2023-01-26T12:33:22.347Z,11.50
2023-01-26T12:36:04.286Z,11.03
2023-01-26T12:38:43.703Z,10.93
2023-01-26T12:41:22.547Z,11.30
2023-01-26T12:44:10.415Z,11.30
2023-01-26T12:46:42.667Z,11.10
2023-01-26T12:49:26.743Z,10.90
2023-01-26T12:52:10.948Z,9.93
2023-01-26T12:54:43.359Z,9.33
2023-01-26T12:57:15.309Z,9.37
2023-01-26T12:59:47.897Z,9.73
2023-01-26T13:02:32.480Z,9.33
2023-01-26T13:05:00.971Z,9.17
2023-01-26T13:07:54.515Z,10.10
2023-01-26T13:10:26.223Z,9.93
2023-01-26T13:13:01.447Z,13.17
2023-01-26T13:15:30.427Z,9.83
2023-01-26T13:17:59.703Z,10.13
2023-01-26T13:20:43.352Z,8.63
2023-01-26T13:23:40.066Z,8.67
2023-01-26T13:26:18.196Z,7.90
2023-01-26T13:28:46.193Z,8.23
2023-01-26T13:31:13.244Z,7.50
2023-01-26T13:33:41.321Z,6.47
2023-01-26T13:36:17.210Z,7.43
2023-01-26T13:38:47.998Z,7.10
2023-01-26T13:41:19.692Z,7.07
2023-01-26T13:44:09.110Z,6.97
2023-01-26T13:47:34.396Z,6.87
2023-01-26T13:50:01.032Z,10.67
2023-01-26T13:52:28.553Z,8.57
2023-01-26T13:55:00.411Z,8.43
2023-01-26T13:57:30.059Z,9.73
2023-01-26T14:00:01.821Z,11.60
2023-01-26T14:02:36.726Z,9.63
2023-01-26T14:05:03.855Z,9.80
2023-01-26T14:07:37.578Z,9.87
2023-01-26T14:10:05.246Z,9.47
2023-01-26T14:12:36.722Z,9.50
2023-01-26T14:15:07.690Z,10.37
2023-01-26T14:17:37.922Z,10.93
2023-01-26T14:20:21.572Z,10.90
2023-01-26T14:23:13.816Z,12.27
2023-01-26T14:25:42.095Z,11.17
2023-01-26T14:28:16.966Z,12.37
2023-01-26T14:30:44.115Z,11.70
2023-01-26T14:33:16.778Z,12.23
2023-01-26T14:35:58.132Z,12.13
2023-01-26T14:38:28.125Z,12.40
2023-01-26T14:41:00.002Z,12.27
2023-01-26T14:43:30.088Z,12.03
2023-01-26T14:46:03.373Z,12.53
2023-01-26T14:48:36.386Z,12.93
2023-01-26T14:51:05.145Z,12.87
2023-01-26T14:53:31.804Z,12.10
2023-01-26T14:55:58.626Z,12.43
2023-01-26T14:58:28.602Z,12.27
2023-01-26T15:00:58.636Z,12.00
2023-01-26T15:03:32.455Z,14.23
2023-01-26T15:06:15.289Z,12.77
2023-01-26T15:08:53.871Z,13.30
2023-01-26T15:11:56.564Z,12.90
2023-01-26T15:14:46.741Z,12.47
2023-01-26T15:17:38.988Z,13.27
2023-01-26T15:20:25.864Z,14.30
2023-01-26T15:22:53.608Z,15.13
2023-01-26T15:25:28.406Z,14.23
2023-01-26T15:27:58.784Z,14.30
2023-01-26T15:30:34.764Z,14.60
2023-01-26T15:33:02.354Z,14.30
2023-01-26T15:35:32.804Z,15.00
2023-01-26T15:38:03.672Z,12.90
2023-01-26T15:40:30.936Z,13.53
2023-01-26T15:43:19.031Z,15.00
2023-01-26T15:45:54.911Z,16.83
2023-01-26T15:48:22.905Z,14.40
2023-01-26T15:50:50.027Z,15.53
2023-01-26T15:53:23.062Z,14.97
2023-01-26T15:55:52.987Z,15.23
2023-01-26T15:58:23.175Z,14.03
2023-01-26T16:00:50.923Z,13.23
2023-01-26T16:03:20.452Z,14.37
2023-01-26T16:05:48.098Z,15.27
2023-01-26T16:08:19.209Z,14.07
2023-01-26T16:10:47.056Z,14.17
2023-01-26T16:13:18.123Z,14.10
2023-01-26T16:15:50.977Z,13.47
2023-01-26T16:18:19.585Z,14.77
2023-01-26T16:20:48.417Z,14.73
2023-01-26T16:23:23.600Z,14.37
2023-01-26T16:25:50.925Z,14.80
2023-01-26T16:28:18.008Z,15.83
2023-01-26T16:30:46.517Z,15.57
2023-01-26T16:33:18.273Z,15.80
2023-01-26T16:35:45.130Z,14.97
2023-01-26T16:38:14.624Z,16.53
2023-01-26T16:40:43.919Z,16.53
2023-01-26T16:43:23.526Z,17.67
2023-01-26T16:45:50.794Z,17.97
2023-01-26T16:48:17.515Z,17.77
2023-01-26T16:50:45.139Z,18.83
2023-01-26T16:53:23.328Z,19.57
2023-01-26T16:55:50.024Z,18.40
2023-01-26T16:58:16.728Z,19.70
2023-01-26T17:00:43.835Z,19.40
2023-01-26T17:03:13.240Z,20.07
2023-01-26T17:05:40.898Z,21.03
2023-01-26T17:08:07.793Z,20.87
2023-01-26T17:10:34.537Z,21.90
2023-01-26T17:13:01.464Z,21.30
2023-01-26T17:15:29.261Z,21.13
2023-01-26T17:17:56.367Z,19.00
2023-01-26T17:20:23.313Z,19.67
2023-01-26T17:22:49.971Z,20.73
2023-01-26T17:25:18.262Z,19.60
2023-01-26T17:27:46.389Z,20.03
2023-01-26T17:30:13.630Z,20.17
2023-01-26T17:32:42.155Z,20.77
2023-01-26T17:35:09.313Z,20.77
2023-01-26T17:37:37.588Z,19.90
2023-01-26T17:40:05.506Z,18.07
2023-01-26T17:42:35.208Z,19.30
2023-01-26T17:45:02.695Z,19.20
2023-01-26T17:47:32.804Z,19.80
2023-01-26T17:50:00.147Z,16.67
2023-01-26T17:52:27.056Z,18.07
2023-01-26T17:54:54.215Z,17.53
2023-01-26T17:57:21.027Z,17.47
2023-01-26T17:59:47.606Z,17.27
2023-01-26T18:02:14.467Z,17.63
2023-01-26T18:04:41.396Z,19.27
2023-01-26T18:07:08.017Z,17.93
2023-01-26T18:09:34.570Z,17.10
2023-01-26T18:12:01.519Z,18.63
2023-01-26T18:14:28.252Z,37.07
2023-01-26T18:16:55.356Z,22.00
2023-01-26T18:19:22.610Z,23.87
2023-01-26T18:21:51.126Z,22.23
2023-01-26T18:24:18.057Z,24.10
2023-01-26T18:26:45.040Z,22.27
2023-01-26T18:29:12.062Z,20.93
2023-01-26T18:31:42.382Z,21.33
2023-01-26T18:34:11.176Z,21.70
2023-01-26T18:36:37.822Z,22.23
2023-01-26T18:39:06.835Z,22.57
2023-01-26T18:41:34.017Z,22.63
2023-01-26T18:44:03.066Z,20.37
2023-01-26T18:46:31.747Z,21.27
2023-01-26T18:49:03.177Z,21.47
2023-01-26T18:51:35.997Z,21.63
2023-01-26T18:54:04.323Z,22.57
2023-01-26T18:56:31.414Z,25.40
2023-01-26T18:58:58.805Z,21.90
2023-01-26T19:01:26.317Z,22.83
2023-01-26T19:03:56.819Z,22.50
2023-01-26T19:06:25.253Z,21.17
2023-01-26T19:09:00.841Z,21.97
2023-01-26T19:11:31.001Z,23.10
2023-01-26T19:13:58.332Z,22.27
2023-01-26T19:16:29.266Z,23.60
2023-01-26T19:18:56.455Z,24.50
2023-01-26T19:21:24.814Z,24.63
2023-01-26T19:23:52.903Z,23.13
2023-01-26T19:26:22.188Z,23.50
2023-01-26T19:28:51.161Z,23.00
2023-01-26T19:31:21.578Z,22.00
2023-01-26T19:33:53.380Z,22.17
2023-01-26T19:36:20.594Z,22.10
2023-01-26T19:38:47.274Z,22.00
2023-01-26T19:41:14.043Z,22.50
2023-01-26T19:43:41.019Z,22.53
2023-01-26T19:46:09.492Z,27.30
2023-01-26T19:48:36.473Z,26.37
2023-01-26T19:51:06.401Z,25.37
2023-01-26T19:53:34.752Z,24.30
2023-01-26T19:56:13.363Z,23.83
2023-01-26T19:58:40.208Z,24.07
2023-01-26T20:01:09.394Z,25.87
2023-01-26T20:03:36.418Z,23.33
2023-01-26T20:06:05.273Z,25.33
2023-01-26T20:08:34.917Z,24.43
2023-01-26T20:11:06.058Z,25.37
2023-01-26T20:13:33.939Z,26.00
2023-01-26T20:16:01.591Z,24.90
2023-01-26T20:18:28.203Z,27.40
2023-01-26T20:21:00.711Z,26.37
2023-01-26T20:23:27.844Z,26.33
2023-01-26T20:26:04.880Z,26.73
2023-01-26T20:28:31.643Z,24.83
2023-01-26T20:31:19.182Z,22.53
2023-01-26T20:33:49.805Z,22.70
2023-01-26T20:36:19.045Z,22.37
2023-01-26T20:38:47.034Z,24.43
2023-01-26T20:41:20.035Z,23.07
2023-01-26T20:43:59.021Z,21.53
2023-01-26T20:46:29.517Z,22.27
2023-01-26T20:48:56.932Z,21.20
2023-01-26T20:51:26.949Z,22.03
2023-01-26T20:53:53.897Z,22.10
2023-01-26T20:56:22.418Z,23.07
2023-01-26T20:58:55.979Z,21.57
2023-01-26T21:01:23.589Z,20.83
2023-01-26T21:03:50.290Z,19.73
2023-01-26T21:06:20.731Z,19.90
2023-01-26T21:08:48.720Z,22.20
2023-01-26T21:11:16.818Z,20.40
2023-01-26T21:13:44.136Z,18.97
2023-01-26T21:16:13.538Z,20.60
2023-01-26T21:18:41.602Z,19.03
2023-01-26T21:21:11.120Z,18.80
2023-01-26T21:23:40.471Z,20.47
2023-01-26T21:26:11.750Z,19.03
2023-01-26T21:28:39.396Z,18.50
2023-01-26T21:31:12.075Z,18.20
2023-01-26T21:33:41.147Z,17.43
2023-01-26T21:36:09.207Z,19.07
2023-01-26T21:38:39.389Z,17.10
2023-01-26T21:41:36.706Z,17.37
2023-01-26T21:44:07.826Z,17.17
2023-01-26T21:46:35.536Z,16.40
2023-01-26T21:49:07.321Z,18.03
2023-01-26T21:51:53.399Z,16.47
2023-01-26T21:54:20.202Z,17.93
2023-01-26T21:56:46.984Z,14.23
2023-01-26T21:59:15.678Z,13.93
2023-01-26T22:01:47.151Z,14.63
2023-01-26T22:04:16.732Z,13.97
2023-01-26T22:06:43.620Z,15.73
2023-01-26T22:09:12.900Z,14.47
2023-01-26T22:11:39.704Z,14.90
2023-01-26T22:14:07.512Z,9.93
2023-01-26T22:16:34.184Z,7.30
2023-01-26T22:19:04.112Z,6.10
2023-01-26T22:21:31.420Z,5.80
2023-01-26T22:23:58.097Z,4.90
2023-01-26T22:26:24.812Z,4.97
2023-01-26T22:28:56.199Z,5.37
2023-01-26T22:31:27.247Z,5.23
2023-01-26T22:33:55.180Z,4.57
2023-01-26T22:36:22.457Z,5.17
2023-01-26T22:38:50.497Z,5.90
2023-01-26T22:41:22.551Z,4.87
2023-01-26T22:43:50.645Z,5.10
2023-01-26T22:46:19.687Z,5.87
2023-01-26T22:48:46.435Z,4.97
2023-01-26T22:51:18.385Z,4.83
2023-01-26T22:53:45.227Z,5.03
2023-01-26T22:56:12.218Z,4.90
2023-01-26T22:58:47.816Z,5.03
2023-01-26T23:01:23.853Z,4.93
2023-01-26T23:03:52.358Z,5.33
2023-01-26T23:06:19.095Z,5.30
2023-01-26T23:08:45.766Z,6.03
2023-01-26T23:11:13.539Z,5.73
2023-01-26T23:13:42.315Z,7.00
2023-01-26T23:16:09.732Z,6.53
2023-01-26T23:18:37.041Z,7.57
2023-01-26T23:21:04.690Z,6.73
2023-01-26T23:23:31.676Z,7.57
2023-01-26T23:25:59.439Z,6.97
2023-01-26T23:28:28.351Z,7.47
2023-01-26T23:30:56.374Z,8.53
2023-01-26T23:33:24.473Z,7.70
2023-01-26T23:35:51.766Z,8.77
2023-01-26T23:38:19.645Z,7.80
2023-01-26T23:40:48.717Z,9.23
2023-01-26T23:43:17.351Z,8.80
2023-01-26T23:45:45.257Z,9.17
2023-01-26T23:48:12.432Z,8.40
2023-01-26T23:50:39.491Z,9.27
2023-01-26T23:53:06.289Z,8.60
2023-01-26T23:55:32.837Z,8.33
2023-01-26T23:57:59.562Z,8.03
